Nearby METAR Reports

 

EGNT - Newcastle, United Kingdom
Distance from station: NNE 1mi, 2km
Updated: 17/02/2019 01:50
NOT Current
Few Clouds
Few Clouds
 Wind from S
Wind: S 10 mph , 17 km/h
Temperature: 11°C
Dew Point: 7°C
Humidity: 77%
Barometer: 1011 hPa
Clouds: Few Clouds
Visibility: 6 miles , 10 km
Cloud details: Few Clouds 732 m
2019/02/17 01:50 EGNT 170150Z 19009KT 160V220 9999 FEW024 11/07 Q1011
EGQM - Boulmer, United Kingdom
Distance from station: N 29mi, 47km
Updated: 17/02/2019 01:50
NOT Current
Mostly cloudy
Mostly cloudy
 Wind from S
Wind: S 17 mph , 28 km/h
Temperature: 9°C
Wind Chill: 6°C
Dew Point: 8°C
Humidity: 94%
Barometer: 1011 hPa
Clouds: Mostly cloudy
Visibility: 6 miles , 10 km
Cloud details: Mostly cloudy 7010 m
2019/02/17 01:50 EGQM 170150Z AUTO 17015KT 9999 BKN230/// 09/08 Q1011
 
EGOM - Spadeadam, United Kingdom
Distance from station: W 34mi, 54km
Updated: 17/02/2019 01:50
NOT Current
Mostly cloudy
Mostly cloudy
 Wind from SSW
Wind: SSW 21 mph , 33 km/h
Temperature: 9°C
Wind Chill: 5°C
Dew Point: 7°C
Humidity: 87%
Barometer: 1010 hPa
Clouds: Mostly cloudy
Visibility: 6 miles , 10 km
Cloud details: Mostly cloudy 488 m
2019/02/17 01:50 EGOM 170150Z AUTO 21018KT 9999 BKN016/// 09/07 Q1010
EGNV - Tees-Side, United Kingdom
Distance from station: SSE 35mi, 57km
Updated: 16/02/2019 21:50
NOT Current
Few Clouds
Few Clouds
 Wind from S
Wind: S 12 mph , 19 km/h
Temperature: 10°C
Wind Chill: 7°C
Dew Point: 7°C
Humidity: 82%
Barometer: 1015 hPa
Clouds: Few Clouds
Visibility: 6 miles , 10 km
Cloud details: Few Clouds 457 m
2019/02/16 21:50 EGNV 162150Z 18010KT 9999 FEW015 10/07 Q1015
 
EGNC - Carlisle, United Kingdom
Distance from station: W 45mi, 72km
Updated: 12/10/2018 14:50
NOT Current
Light rain, Showers, Overcast
Light rain, Showers, Overcast
 Wind from S
Wind: S 21 mph , 33 km/h, Gust: 38 mph , 61 km/h
Temperature: 16°C
Dew Point: 14°C
Humidity: 88%
Barometer: 992 hPa
Summary: Light rain, Showers
Clouds: Overcast
Visibility: 3 miles , 5 km
Cloud details: Partly cloudy 305 m
Overcast 488 m
2018/10/12 13:50 EGNC 121350Z 18018G33KT 140V220 5000 -SHRA SCT010 OVC016 16/14 Q0992
EGXE - Leeming Raf, United Kingdom
Distance from station: S 50mi, 81km
Updated: 17/02/2019 01:50
NOT Current
Clear
Clear
 Wind from SE
Wind: SE 13 mph , 20 km/h
Temperature: 9°C
Wind Chill: 6°C
Dew Point: 8°C
Humidity: 94%
Barometer: 1013 hPa
Clouds: Clear
Visibility: 6 miles , 10 km
2019/02/17 01:50 EGXE 170150Z AUTO 14011KT 9999 NCD 09/08 Q1013
 
EGXZ - Topcliffe Raf, United Kingdom
Distance from station: SSE 57mi, 91km
Updated: 17/02/2019 01:50
NOT Current
Clear
Clear
 Wind from ESE
Wind: ESE 13 mph , 20 km/h
Temperature: 9°C
Wind Chill: 6°C
Dew Point: 7°C
Humidity: 87%
Barometer: 1014 hPa
Clouds: Clear
Visibility: 6 miles , 10 km
2019/02/17 01:50 EGXZ 170150Z AUTO 11011KT 9999 NCD 09/07 Q1014
EGXU - Linton-On-Ouse R, United Kingdom
Distance from station: SSE 68mi, 110km
Updated: 17/02/2019 01:50
NOT Current
Clear
Clear
 Wind from SE
Wind: SE 10 mph , 17 km/h
Temperature: 9°C
Wind Chill: 7°C
Dew Point: 7°C
Humidity: 87%
Barometer: 1014 hPa
Clouds: Clear
Visibility: 6 miles , 10 km
2019/02/17 01:50 EGXU 170150Z AUTO 14009KT 9999 // NCD 09/07 Q1014
 
EGNM - Leeds And Bradfo, United Kingdom
Distance from station: S 78mi, 126km
Updated: 17/02/2019 02:20
NOT Current
Clear
Clear
 Wind from SSE
Wind: SSE 6 mph , 9 km/h
Temperature: 7°C
Wind Chill: 6°C
Dew Point: 5°C
Humidity: 87%
Barometer: 1013 hPa
Summary: Clear
Visibility: greater than 7 miles , 10 km
2019/02/17 02:20 EGNM 170220Z 16005KT CAVOK 07/05 Q1013
EGPH - Edinburgh Airpor, United Kingdom
Distance from station: NW 92mi, 148km
Updated: 17/02/2019 02:20
NOT Current
Mostly cloudy
Mostly cloudy
 Wind from SSW
Wind: SSW 17 mph , 28 km/h
Temperature: 11°C
Dew Point: 7°C
Humidity: 77%
Barometer: 1008 hPa
Clouds: Mostly cloudy
Visibility: 6 miles , 10 km
Cloud details: Mostly cloudy 579 m
2019/02/17 02:20 EGPH 170220Z 21015KT 9999 BKN019 11/07 Q1008
 
EGXV - Leconfield (aut), United Kingdom
Distance from station: SE 93mi, 150km
Updated: 17/02/2019 01:50
NOT Current
Clear
Clear
 Wind from S
Wind: S 8 mph , 13 km/h
Temperature: 10°C
Wind Chill: 8°C
Dew Point: 8°C
Humidity: 88%
Barometer: 1015 hPa
Clouds: Clear
Visibility: 6 miles , 10 km
2019/02/17 01:50 EGXV 170150Z AUTO 19007KT 9999 NCD 10/08 Q1015
EGNO - Wharton, United Kingdom
Distance from station: SSW 99mi, 159km
Updated: 15/02/2019 17:50
NOT Current
Clear
Clear
 Wind from SE
Wind: SE 10 mph , 17 km/h
Temperature: 11°C
Dew Point: 6°C
Humidity: 72%
Barometer: 1019 hPa
Summary: Clear
Visibility: greater than 7 miles , 10 km
2019/02/15 17:50 EGNO 151750Z 14009KT CAVOK 11/06 Q1019
 
EGNH - Blackpool Airpor, United Kingdom
Distance from station: SSW 100mi, 161km
Updated: 16/02/2019 20:50
NOT Current
Mostly cloudy
Mostly cloudy
 Wind from SSE
Wind: SSE 20 mph , 31 km/h
Temperature: 12°C
Dew Point: 9°C
Humidity: 82%
Barometer: 1015 hPa
Clouds: Mostly cloudy
Visibility: 6 miles , 10 km
Cloud details: Few Clouds 1158 m
Mostly cloudy 1341 m
2019/02/16 20:50 EGNH 162050Z 16017KT 9999 FEW038 BKN044 12/09 Q1015